Time;durP1;ratioP1;P1;durP2;ratioP2;P2;SDS_P1;SDS_P2;PMS_P1;PMS_P2;Temp;Humidity;BMP_temperature;BMP_pressure;BME280_temperature;BME280_humidity;BME280_pressure;Samples;Min_cycle;Max_cycle;Signal;HPM_P1;HPM_P2
2021/04/14 00:01:16;;;;;;;14.80;4.33;;;;;;;3.05;58.14;99837.94;114235;1193;64371;-78
2021/04/14 00:03:45;;;;;;;13.57;4.40;;;;;;;3.03;58.15;99831.86;114514;1193;64542;-82
2021/04/14 00:06:13;;;;;;;10.97;4.53;;;;;;;3.01;58.30;99826.63;114293;1193;64372;-79
2021/04/14 00:08:40;;;;;;;9.60;4.13;;;;;;;3.00;58.25;99834.59;114291;1193;64416;-82
2021/04/14 00:11:12;;;;;;;16.33;4.20;;;;;;;2.98;58.35;99827.56;114533;1193;64355;-78
2021/04/14 00:13:43;;;;;;;7.35;3.35;;;;;;;2.97;58.30;99824.98;114278;1193;64452;-81
2021/04/14 00:16:22;;;;;;;13.00;3.90;;;;;;;2.96;58.67;99824.11;114362;1193;64334;-77
2021/04/14 00:18:49;;;;;;;15.93;5.13;;;;;;;2.95;58.38;99830.31;114306;1193;64672;-79
2021/04/14 00:21:18;;;;;;;12.65;4.35;;;;;;;2.94;58.66;99825.95;114221;1193;64401;-82
2021/04/14 00:23:45;;;;;;;8.07;3.70;;;;;;;2.92;58.63;99830.38;114288;1193;64387;-79
2021/04/14 00:26:15;;;;;;;12.10;4.80;;;;;;;2.93;58.64;99831.27;114211;1193;64400;-82
2021/04/14 00:28:43;;;;;;;15.40;5.10;;;;;;;2.91;58.50;99826.02;114259;1193;64436;-82
2021/04/14 00:31:11;;;;;;;11.85;4.20;;;;;;;2.89;58.66;99826.98;114578;1193;64420;-79
2021/04/14 00:33:38;;;;;;;11.40;4.00;;;;;;;2.88;58.71;99826.12;114228;1193;64375;-78
2021/04/14 00:36:06;;;;;;;16.20;4.50;;;;;;;2.89;58.67;99825.20;114321;1193;64468;-78
2021/04/14 00:38:32;;;;;;;12.55;3.90;;;;;;;2.90;58.60;99832.20;114243;1192;64381;-76
2021/04/14 00:41:04;;;;;;;15.60;4.60;;;;;;;2.90;58.75;99834.84;114606;1192;64535;-79
2021/04/14 00:43:34;;;;;;;11.10;4.75;;;;;;;2.90;58.77;99832.20;114260;1193;64400;-78
2021/04/14 00:46:02;;;;;;;14.97;4.80;;;;;;;2.88;58.65;99831.39;114308;1193;64352;-77
2021/04/14 00:48:29;;;;;;;11.20;4.50;;;;;;;2.86;58.79;99827.95;114431;1193;64330;-78
2021/04/14 00:50:56;;;;;;;13.70;4.60;;;;;;;2.84;58.75;99835.02;114404;1193;64343;-78
2021/04/14 00:53:24;;;;;;;15.30;5.25;;;;;;;2.82;59.10;99831.56;114327;1193;64359;-80
2021/04/14 00:55:53;;;;;;;14.20;5.27;;;;;;;2.81;58.85;99828.98;114303;1193;64352;-84
2021/04/14 00:58:21;;;;;;;14.57;5.23;;;;;;;2.79;58.99;99830.77;114261;1193;64350;-82
2021/04/14 01:00:51;;;;;;;12.80;4.50;;;;;;;2.77;58.78;99832.59;114286;1193;64419;-79
2021/04/14 01:03:25;;;;;;;8.65;4.40;;;;;;;2.76;58.81;99838.78;114322;1193;64433;-82
2021/04/14 01:05:55;;;;;;;12.80;4.90;;;;;;;2.75;58.91;99837.06;114340;1193;64730;-83
2021/04/14 01:08:23;;;;;;;13.07;5.00;;;;;;;2.74;59.33;99833.56;114359;1193;64535;-82
2021/04/14 01:10:52;;;;;;;15.43;5.10;;;;;;;2.76;59.04;99837.02;114257;1193;64378;-79
2021/04/14 01:13:19;;;;;;;14.70;4.75;;;;;;;2.79;59.45;99836.05;114401;1193;64365;-79
2021/04/14 01:15:50;;;;;;;15.27;5.30;;;;;;;2.78;59.10;99840.46;114310;1193;64426;-80
2021/04/14 01:18:21;;;;;;;14.73;5.90;;;;;;;2.79;59.03;99846.59;114280;1193;64452;-78
2021/04/14 01:20:48;;;;;;;13.10;4.85;;;;;;;2.77;59.04;99844.02;114591;1193;64445;-79
2021/04/14 01:23:16;;;;;;;14.75;4.75;;;;;;;2.76;59.20;99842.29;114211;1193;64484;-80
2021/04/14 01:25:44;;;;;;;13.70;4.85;;;;;;;2.75;58.90;99840.56;114276;1193;64372;-79
2021/04/14 01:28:17;;;;;;;12.67;5.80;;;;;;;2.75;59.10;99847.61;114238;1193;64401;-79
2021/04/14 01:30:47;;;;;;;12.40;5.63;;;;;;;2.73;59.22;99847.63;114941;1193;64449;-82
2021/04/14 01:33:15;;;;;;;18.73;6.43;;;;;;;2.75;59.41;99839.70;114242;1193;65952;-79
2021/04/14 01:35:43;;;;;;;18.40;6.00;;;;;;;2.75;59.27;99842.34;114269;1193;64340;-82
2021/04/14 01:38:10;;;;;;;15.93;5.60;;;;;;;2.74;59.35;99838.84;114302;1193;64391;-78
2021/04/14 01:40:37;;;;;;;20.80;6.20;;;;;;;2.72;59.15;99837.99;114280;1193;64355;-77
2021/04/14 01:43:05;;;;;;;15.60;5.00;;;;;;;2.69;59.54;99844.23;114647;1193;64442;-79
2021/04/14 01:45:36;;;;;;;14.10;4.95;;;;;;;2.67;59.92;99842.52;114283;1193;64362;-81
2021/04/14 01:48:05;;;;;;;16.27;5.20;;;;;;;2.64;59.39;99840.84;114249;1193;64349;-81
2021/04/14 01:50:33;;;;;;;14.80;6.00;;;;;;;2.63;59.96;99840.90;114300;1193;64398;-78
2021/04/14 01:53:00;;;;;;;15.00;5.03;;;;;;;2.63;59.81;99840.90;114660;1193;64297;-80
2021/04/14 01:55:28;;;;;;;11.90;4.40;;;;;;;2.62;59.35;99836.53;114227;1192;64355;-79
2021/04/14 01:57:58;;;;;;;12.45;4.65;;;;;;;2.60;59.82;99835.69;114265;1193;64394;-79
2021/04/14 02:00:42;;;;;;;13.83;5.37;;;;;;;2.58;59.84;99827.83;114612;1192;64384;-76
2021/04/14 02:03:09;;;;;;;12.00;4.95;;;;;;;2.55;59.87;99834.98;114273;1193;64299;-78
2021/04/14 02:05:36;;;;;;;14.23;4.87;;;;;;;2.52;60.17;99838.54;114274;1192;64298;-78
2021/04/14 02:08:04;;;;;;;14.83;5.50;;;;;;;2.52;60.04;99842.95;114477;1192;64368;-79
2021/04/14 02:10:33;;;;;;;15.17;5.00;;;;;;;2.50;59.87;99839.50;114341;1193;64445;-80
2021/04/14 02:13:03;;;;;;;15.10;4.75;;;;;;;2.49;60.02;99837.78;114294;1193;64432;-78
2021/04/14 02:15:33;;;;;;;16.77;5.93;;;;;;;2.47;60.05;99835.16;114341;1192;64458;-83
2021/04/14 02:18:01;;;;;;;23.10;5.85;;;;;;;2.48;60.07;99838.66;114519;1193;64365;-80
2021/04/14 02:20:28;;;;;;;10.13;4.70;;;;;;;2.47;60.20;99834.30;114248;1193;64576;-78
2021/04/14 02:22:55;;;;;;;11.60;5.15;;;;;;;2.43;60.05;99844.07;114217;1193;64340;-80
2021/04/14 02:25:24;;;;;;;11.55;4.85;;;;;;;2.42;60.06;99848.48;114309;1193;64363;-80
2021/04/14 02:27:51;;;;;;;17.20;4.90;;;;;;;2.40;60.37;99842.36;114660;1193;64455;-79
2021/04/14 02:30:24;;;;;;;15.27;5.37;;;;;;;2.38;60.22;99838.05;114265;1193;64362;-80
2021/04/14 02:32:54;;;;;;;12.40;4.80;;;;;;;2.36;60.22;99831.97;114251;1193;64790;-80
2021/04/14 02:35:23;;;;;;;14.25;4.30;;;;;;;2.35;60.43;99840.75;114265;1193;64305;-78
2021/04/14 02:37:51;;;;;;;10.07;4.73;;;;;;;2.34;60.64;99845.16;114295;1193;64420;-83
2021/04/14 02:40:19;;;;;;;10.87;4.67;;;;;;;2.35;60.66;99846.02;114235;1192;64302;-78
2021/04/14 02:42:46;;;;;;;16.80;4.47;;;;;;;2.31;60.21;99842.62;114730;1192;64461;-78
2021/04/14 02:45:14;;;;;;;11.27;4.30;;;;;;;2.29;60.76;99844.44;114259;1193;64395;-81
2021/04/14 02:47:41;;;;;;;10.37;4.37;;;;;;;2.29;60.17;99838.27;114321;1193;64394;-81
2021/04/14 02:50:10;;;;;;;13.97;4.43;;;;;;;2.29;60.37;99835.64;114594;1193;64347;-79
2021/04/14 02:52:37;;;;;;;15.83;5.50;;;;;;;2.28;60.55;99834.77;114251;1193;64397;-78
2021/04/14 02:55:08;;;;;;;14.70;5.00;;;;;;;2.26;60.60;99839.23;114261;1193;64397;-79
2021/04/14 02:57:35;;;;;;;17.05;5.05;;;;;;;2.23;60.62;99835.80;114551;1193;64369;-78
2021/04/14 03:00:06;;;;;;;11.60;4.15;;;;;;;2.22;60.56;99834.93;114239;1192;64337;-80
2021/04/14 03:02:35;;;;;;;16.40;5.30;;;;;;;2.21;60.88;99837.61;114263;1193;64445;-82
2021/04/14 03:05:05;;;;;;;11.90;5.07;;;;;;;2.20;60.52;99841.16;114309;1193;64371;-78
2021/04/14 03:07:33;;;;;;;16.10;5.80;;;;;;;2.15;60.53;99834.22;114317;1193;64337;-82
2021/04/14 03:10:00;;;;;;;16.90;5.20;;;;;;;2.13;61.00;99836.05;114281;1193;64387;-81
2021/04/14 03:12:27;;;;;;;13.17;4.97;;;;;;;2.10;60.59;99828.23;114529;1193;64372;-76
2021/04/14 03:14:55;;;;;;;12.87;3.27;;;;;;;2.07;61.38;99828.30;114383;1193;64407;-82
2021/04/14 03:17:22;;;;;;;14.57;4.90;;;;;;;2.06;60.81;99833.61;114235;1193;64442;-83
2021/04/14 03:19:48;;;;;;;21.40;5.07;;;;;;;2.05;61.06;99830.11;114238;1193;64374;-80
2021/04/14 03:22:16;;;;;;;17.23;4.60;;;;;;;2.04;61.42;99832.79;114624;1193;64493;-79
2021/04/14 03:24:43;;;;;;;12.30;4.60;;;;;;;2.02;61.38;99835.44;114291;1193;64432;-84
2021/04/14 03:27:10;;;;;;;15.70;5.50;;;;;;;2.01;61.46;99836.34;114263;1193;64413;-80
2021/04/14 03:29:37;;;;;;;14.05;4.60;;;;;;;1.98;61.23;99835.58;114246;1193;64460;-79
2021/04/14 03:32:04;;;;;;;19.20;6.00;;;;;;;1.96;61.19;99832.09;114256;1193;64336;-77
2021/04/14 03:34:32;;;;;;;11.80;4.13;;;;;;;1.94;61.62;99826.87;114218;1193;64541;-79
2021/04/14 03:37:00;;;;;;;12.20;5.13;;;;;;;1.93;61.13;99829.55;114310;1193;64394;-82
2021/04/14 03:39:27;;;;;;;15.37;5.33;;;;;;;1.92;61.41;99831.32;114252;1193;64423;-78
2021/04/14 03:41:53;;;;;;;16.70;5.20;;;;;;;1.90;61.35;99830.47;114609;1193;64410;-84
2021/04/14 03:44:20;;;;;;;16.50;5.00;;;;;;;1.90;61.76;99823.44;114250;1193;64359;-80
2021/04/14 03:46:47;;;;;;;16.20;5.27;;;;;;;1.89;62.41;99819.07;114231;1193;64507;-77
2021/04/14 03:49:13;;;;;;;16.50;5.00;;;;;;;1.89;61.67;99824.34;114368;1193;64400;-78
2021/04/14 03:51:40;;;;;;;8.45;4.05;;;;;;;1.88;61.60;99833.15;114716;1193;64378;-80
2021/04/14 03:54:07;;;;;;;23.23;5.53;;;;;;;1.88;61.92;99832.28;114213;1193;64487;-80
2021/04/14 03:56:33;;;;;;;13.30;4.10;;;;;;;1.88;62.23;99832.28;114260;1193;64749;-80
2021/04/14 03:59:00;;;;;;;13.00;4.80;;;;;;;1.86;62.11;99821.80;114633;1193;64366;-79
2021/04/14 04:01:30;;;;;;;12.50;4.45;;;;;;;1.86;62.08;99832.33;114317;1193;64404;-78
2021/04/14 04:03:59;;;;;;;12.70;4.20;;;;;;;1.85;62.19;99833.24;114350;1192;64397;-79
2021/04/14 04:06:26;;;;;;;16.10;4.65;;;;;;;1.84;62.38;99835.89;114422;1193;64397;-76
2021/04/14 04:08:53;;;;;;;17.85;4.40;;;;;;;1.85;62.30;99835.02;114259;1193;64366;-80
2021/04/14 04:11:22;;;;;;;9.97;4.33;;;;;;;1.85;62.37;99835.02;114237;1193;64516;-78
2021/04/14 04:13:50;;;;;;;9.85;4.80;;;;;;;1.83;62.09;99832.39;114286;1193;64343;-80
2021/04/14 04:16:19;;;;;;;15.60;4.50;;;;;;;1.83;61.81;99845.56;115365;1193;64292;-78
2021/04/14 04:18:45;;;;;;;17.30;5.00;;;;;;;1.83;61.74;99840.29;114342;1193;64429;-79
2021/04/14 04:21:12;;;;;;;10.13;3.67;;;;;;;1.85;61.72;99846.41;114285;1193;64288;-82
2021/04/14 04:23:39;;;;;;;8.83;4.13;;;;;;;1.86;62.02;99847.27;114059;1192;64423;-79
2021/04/14 04:26:06;;;;;;;12.83;3.83;;;;;;;1.85;62.00;99848.18;114592;1193;64430;-79
2021/04/14 04:28:34;;;;;;;9.87;3.97;;;;;;;1.85;61.94;99850.81;114250;1193;64350;-80
2021/04/14 04:31:01;;;;;;;10.80;4.30;;;;;;;1.86;62.55;99849.91;114376;1193;64375;-79
2021/04/14 04:33:28;;;;;;;12.07;3.20;;;;;;;1.88;62.16;99848.95;114320;1193;64365;-80
2021/04/14 04:35:56;;;;;;;14.40;4.50;;;;;;;1.90;61.94;99849.77;114258;1193;64512;-80
2021/04/14 04:38:23;;;;;;;10.17;4.20;;;;;;;1.95;62.62;99854.08;114316;1192;64388;-82
2021/04/14 04:40:50;;;;;;;21.27;5.10;;;;;;;1.96;62.29;99855.80;114241;1193;64494;-80
2021/04/14 04:43:18;;;;;;;11.55;4.10;;;;;;;1.98;62.40;99854.02;114236;1193;64372;-82
2021/04/14 04:45:45;;;;;;;8.80;3.27;;;;;;;1.99;62.27;99866.28;114422;1193;64372;-82
2021/04/14 04:48:15;;;;;;;15.23;3.90;;;;;;;2.01;62.67;99856.56;114361;1192;64519;-82
2021/04/14 04:50:42;;;;;;;14.40;4.70;;;;;;;2.02;62.73;99867.05;114398;1193;64461;-78
2021/04/14 04:53:15;;;;;;;14.30;4.05;;;;;;;2.04;62.32;99867.04;114245;1193;64319;-78
2021/04/14 04:55:44;;;;;;;10.83;3.87;;;;;;;2.07;62.83;99866.95;114291;1193;64393;-80
2021/04/14 04:58:11;;;;;;;13.00;3.50;;;;;;;2.07;62.81;99872.22;114285;1192;64372;-80
2021/04/14 05:00:38;;;;;;;9.33;3.30;;;;;;;2.10;62.27;99870.39;114246;1193;64365;-84
2021/04/14 05:03:06;;;;;;;16.57;3.87;;;;;;;2.12;62.63;99870.34;114281;1193;64395;-80
2021/04/14 05:05:37;;;;;;;10.25;3.75;;;;;;;2.14;62.48;99871.16;114233;1193;64467;-82
2021/04/14 05:08:06;;;;;;;17.83;4.60;;;;;;;2.16;62.81;99882.52;114358;1193;64368;-80
2021/04/14 05:10:34;;;;;;;15.70;3.63;;;;;;;2.19;62.43;99874.55;115024;1193;64362;-79
2021/04/14 05:13:02;;;;;;;17.50;3.07;;;;;;;2.21;62.94;99878.00;114631;1193;64317;-79
2021/04/14 05:15:34;;;;;;;18.13;3.80;;;;;;;2.25;62.28;99878.80;114323;1193;64430;-80
2021/04/14 05:18:01;;;;;;;7.70;3.17;;;;;;;2.31;62.89;99873.38;114456;1193;64372;-82
2021/04/14 05:20:29;;;;;;;7.03;2.90;;;;;;;2.34;62.89;99882.06;114351;1193;64815;-77
2021/04/14 05:22:56;;;;;;;15.40;3.77;;;;;;;2.37;62.52;99887.27;114645;1193;64366;-77
2021/04/14 05:25:26;;;;;;;16.80;3.57;;;;;;;2.42;62.89;99892.44;114240;1193;64375;-78
2021/04/14 05:27:56;;;;;;;11.90;3.03;;;;;;;2.45;62.51;99894.98;114677;1193;64371;-77
2021/04/14 05:30:23;;;;;;;15.70;4.53;;;;;;;2.51;62.59;99889.55;115689;1193;64317;-78
2021/04/14 05:32:50;;;;;;;11.03;3.87;;;;;;;2.58;62.53;99880.56;114419;1193;64854;-79
2021/04/14 05:35:18;;;;;;;11.50;3.40;;;;;;;2.67;62.95;99887.36;114378;1192;64378;-78
2021/04/14 05:37:44;;;;;;;10.15;3.30;;;;;;;2.69;62.54;99886.42;114227;1192;64295;-78
2021/04/14 05:40:12;;;;;;;15.90;3.40;;;;;;;2.75;62.76;99890.67;114311;1193;64385;-78
2021/04/14 05:42:44;;;;;;;12.20;3.20;;;;;;;2.82;62.53;99894.02;114246;1193;64352;-82
2021/04/14 05:45:16;;;;;;;15.00;4.23;;;;;;;2.87;62.43;99887.70;114256;1193;64432;-78
2021/04/14 05:47:43;;;;;;;17.40;2.90;;;;;;;2.89;62.26;99898.21;114208;1193;64407;-83
2021/04/14 05:50:14;;;;;;;17.43;4.03;;;;;;;2.88;62.55;99881.52;114254;1193;64494;-79
2021/04/14 05:52:40;;;;;;;13.47;3.87;;;;;;;2.93;62.51;99882.27;114472;1193;64476;-78
2021/04/14 05:55:08;;;;;;;9.93;3.43;;;;;;;3.01;62.55;99878.54;114503;1193;64340;-80
2021/04/14 05:57:36;;;;;;;11.97;3.93;;;;;;;3.08;62.70;99886.23;114451;1193;64368;-81
2021/04/14 06:00:11;;;;;;;12.10;4.07;;;;;;;3.10;62.49;99878.27;114450;1193;64336;-81
2021/04/14 06:02:42;;;;;;;13.27;3.63;;;;;;;3.10;62.24;99883.55;114331;1192;64503;-79
2021/04/14 06:05:16;;;;;;;13.80;4.15;;;;;;;3.13;62.28;99879.05;114349;1193;64363;-79
2021/04/14 06:07:51;;;;;;;15.83;3.70;;;;;;;3.21;62.40;99879.69;114331;1193;64302;-80
2021/04/14 06:10:26;;;;;;;12.83;3.10;;;;;;;3.29;62.04;99874.19;114355;1193;64362;-78
2021/04/14 06:12:55;;;;;;;11.80;3.80;;;;;;;3.41;62.31;99880.88;114497;1193;64470;-80
2021/04/14 06:15:29;;;;;;;14.55;4.60;;;;;;;3.60;62.27;99879.41;114295;1193;64487;-80
2021/04/14 06:17:56;;;;;;;17.25;4.85;;;;;;;3.73;61.81;99879.90;114297;1193;64398;-80
2021/04/14 06:20:27;;;;;;;15.40;4.13;;;;;;;3.89;62.31;99878.52;114338;1193;64586;-80
2021/04/14 06:23:04;;;;;;;16.85;4.70;;;;;;;4.01;61.94;99879.91;114272;1193;64350;-82
2021/04/14 06:25:38;;;;;;;12.10;3.67;;;;;;;4.05;61.65;99871.81;114285;1193;64439;-79
2021/04/14 06:28:06;;;;;;;18.23;5.53;;;;;;;4.08;61.72;99876.16;114302;1193;64394;-79
2021/04/14 06:30:37;;;;;;;14.50;4.40;;;;;;;4.20;61.82;99875.75;114447;1193;64368;-80
2021/04/14 06:33:09;;;;;;;10.83;3.27;;;;;;;4.24;61.14;99876.50;114279;1193;64378;-82
2021/04/14 06:35:37;;;;;;;12.07;3.57;;;;;;;4.21;61.39;99881.91;114391;1193;64439;-80
2021/04/14 06:38:05;;;;;;;7.80;2.97;;;;;;;4.17;61.47;99875.84;114318;1193;64439;-78
2021/04/14 06:43:42;;;;;;;11.55;3.60;;;;;;;4.40;61.52;99868.94;114358;1193;64395;-79
2021/04/14 06:46:35;;;;;;;15.95;3.70;;;;;;;4.55;61.73;99877.19;114334;1193;64353;-79
2021/04/14 06:49:17;;;;;;;12.90;4.10;;;;;;;4.58;60.98;99876.20;114355;1193;64337;-82
2021/04/14 06:51:58;;;;;;;15.63;3.50;;;;;;;4.66;61.52;99878.61;114326;1193;64294;-82
2021/04/14 06:54:45;;;;;;;18.40;4.83;;;;;;;4.75;61.25;99881.78;114287;1193;64538;-80
2021/04/14 06:57:26;;;;;;;12.87;3.50;;;;;;;5.08;61.53;99865.61;114314;1193;64362;-78
2021/04/14 07:00:24;;;;;;;13.47;3.13;;;;;;;5.23;61.16;99882.73;114273;1193;64372;-83
2021/04/14 07:03:10;;;;;;;11.20;3.10;;;;;;;5.19;60.95;99875.81;114335;1193;64391;-81
2021/04/14 07:05:42;;;;;;;17.13;3.83;;;;;;;5.24;61.02;99876.52;114436;1193;64368;-79
2021/04/14 07:08:21;;;;;;;12.95;4.00;;;;;;;5.43;61.22;99874.89;114250;1193;64323;-81
2021/04/14 07:10:54;;;;;;;13.17;2.90;;;;;;;5.55;60.65;99866.48;114229;1193;64394;-78
2021/04/14 07:13:22;;;;;;;10.17;3.73;;;;;;;5.43;60.89;99870.46;114246;1193;64350;-79
2021/04/14 07:16:06;;;;;;;18.23;3.60;;;;;;;5.48;61.42;99869.44;114254;1193;64490;-79
2021/04/14 07:18:51;;;;;;;14.27;3.00;;;;;;;5.62;60.64;99867.11;114291;1193;64496;-77
2021/04/14 07:21:47;;;;;;;11.65;3.15;;;;;;;5.62;60.92;99870.62;114218;1193;64381;-81
2021/04/14 07:24:24;;;;;;;7.90;3.13;;;;;;;5.73;60.61;99869.34;114352;1193;64912;-83
2021/04/14 07:27:17;;;;;;;;;;;;;;;5.85;61.20;99877.67;114282;1201;64426;-81
2021/04/14 07:29:52;;;;;;;14.77;3.67;;;;;;;5.89;60.52;99867.80;114326;1193;64465;-79
2021/04/14 07:32:43;;;;;;;16.13;4.40;;;;;;;5.90;60.77;99869.52;114324;1193;64427;-79
2021/04/14 07:35:30;;;;;;;19.57;4.03;;;;;;;5.98;60.52;99875.44;114314;1193;64758;-80
2021/04/14 07:38:19;;;;;;;12.83;4.10;;;;;;;6.05;60.75;99876.91;114261;1193;64345;-81
2021/04/14 07:41:06;;;;;;;14.55;3.50;;;;;;;6.10;60.54;99866.95;114271;1193;64356;-78
2021/04/14 07:43:36;;;;;;;17.13;4.57;;;;;;;6.08;60.67;99875.91;114219;1193;64317;-83
2021/04/14 07:46:05;;;;;;;16.57;3.73;;;;;;;6.16;60.67;99868.49;114245;1193;64324;-79
2021/04/14 07:48:34;;;;;;;14.60;4.13;;;;;;;6.15;60.46;99867.63;114257;1193;64528;-84
2021/04/14 07:51:04;;;;;;;10.17;3.33;;;;;;;6.15;60.06;99870.28;114294;1193;64406;-79
2021/04/14 07:53:40;;;;;;;13.60;4.67;;;;;;;6.21;60.22;99871.83;114235;1193;64484;-80
2021/04/14 07:56:21;;;;;;;15.23;4.43;;;;;;;6.37;60.37;99869.41;114315;1193;64289;-80
2021/04/14 07:58:53;;;;;;;8.83;3.77;;;;;;;6.41;60.71;99870.98;114293;1193;64394;-78
2021/04/14 08:01:23;;;;;;;15.27;4.47;;;;;;;6.28;59.46;99867.98;114368;1193;64256;-80
2021/04/14 08:03:52;;;;;;;12.50;4.20;;;;;;;6.25;60.20;99861.97;114403;1193;64397;-79
2021/04/14 08:06:23;;;;;;;16.37;4.60;;;;;;;6.21;59.75;99861.22;114469;1192;64318;-78
2021/04/14 08:08:50;;;;;;;20.37;4.53;;;;;;;6.21;60.80;99864.73;114507;1193;64390;-77
2021/04/14 08:11:35;;;;;;;17.23;4.43;;;;;;;6.45;60.18;99861.98;114408;1193;64489;-79
2021/04/14 08:14:21;;;;;;;16.30;4.43;;;;;;;6.68;60.49;99859.22;114270;1193;64305;-78
2021/04/14 08:16:53;;;;;;;15.07;4.57;;;;;;;6.84;60.10;99855.88;114321;1193;64426;-78
2021/04/14 08:19:26;;;;;;;13.35;3.70;;;;;;;6.84;59.65;99850.58;114427;1193;64758;-77
2021/04/14 08:21:59;;;;;;;14.07;4.57;;;;;;;7.02;59.38;99845.30;114412;1193;64433;-79
2021/04/14 08:24:39;;;;;;;11.87;3.67;;;;;;;7.28;59.44;99845.91;114322;1193;64327;-78
2021/04/14 08:27:20;;;;;;;21.00;4.50;;;;;;;7.53;60.05;99842.98;114359;1193;64615;-80
2021/04/14 08:30:04;;;;;;;13.43;3.33;;;;;;;7.95;59.24;99853.38;114326;1193;64404;-78
2021/04/14 08:32:36;;;;;;;15.75;4.20;;;;;;;7.86;57.30;99841.36;114290;1193;64371;-78
2021/04/14 08:35:34;;;;;;;14.70;4.20;;;;;;;7.66;58.62;99844.13;114335;1193;64452;-80
2021/04/14 08:38:07;;;;;;;14.20;4.10;;;;;;;7.94;59.13;99848.10;114422;1193;64301;-78
2021/04/14 08:40:42;;;;;;;16.90;4.90;;;;;;;7.98;57.70;99826.61;114420;1193;64458;-78
2021/04/14 08:43:12;;;;;;;17.00;4.53;;;;;;;8.00;58.64;99831.84;114408;1193;64375;-78
2021/04/14 08:45:46;;;;;;;15.30;4.17;;;;;;;8.15;57.12;99833.77;114233;1193;64426;-80
2021/04/14 08:48:31;;;;;;;15.13;3.93;;;;;;;8.15;58.03;99831.11;114528;1193;64324;-78
2021/04/14 08:51:03;;;;;;;15.03;3.18;;;;;;;8.37;58.01;99834.42;114381;1193;64317;-79
2021/04/14 08:53:35;;;;;;;13.80;3.90;;;;;;;8.38;58.62;99828.16;114333;1193;64519;-78
2021/04/14 08:56:05;;;;;;;9.73;3.67;;;;;;;8.58;58.39;99836.92;114368;1192;64481;-79
2021/04/14 08:58:32;;;;;;;12.30;3.37;;;;;;;8.48;58.51;99835.70;114414;1193;64359;-78
2021/04/14 09:01:00;;;;;;;15.17;3.13;;;;;;;8.45;57.93;99828.71;114509;1192;64305;-82
2021/04/14 09:03:33;;;;;;;14.40;3.00;;;;;;;8.37;57.95;99834.42;114342;1193;64286;-79
2021/04/14 09:06:01;;;;;;;11.90;3.65;;;;;;;8.20;57.44;99829.05;114304;1193;64448;-78
2021/04/14 09:08:33;;;;;;;11.97;3.33;;;;;;;8.38;58.29;99836.14;114283;1193;64591;-78
2021/04/14 09:11:06;;;;;;;12.95;3.00;;;;;;;8.60;58.05;99825.28;114379;1192;64447;-80
2021/04/14 09:13:38;;;;;;;8.60;3.63;;;;;;;8.45;57.29;99826.05;114349;1193;64371;-84
2021/04/14 09:16:07;;;;;;;11.27;3.80;;;;;;;8.16;56.49;99816.00;114332;1193;64362;-85
2021/04/14 09:18:39;;;;;;;10.93;3.60;;;;;;;8.09;58.21;99818.97;114308;1193;64455;-79
2021/04/14 09:21:26;;;;;;;7.65;3.35;;;;;;;8.13;57.59;99824.98;114332;1193;64349;-80
2021/04/14 09:24:02;;;;;;;12.17;3.13;;;;;;;7.96;56.51;99817.85;114339;1193;64385;-80
2021/04/14 09:26:39;;;;;;;11.30;3.00;;;;;;;8.06;57.91;99812.92;114332;1192;64391;-82
2021/04/14 09:29:39;;;;;;;8.50;3.30;;;;;;;8.45;58.34;99810.08;114236;1192;64385;-78
2021/04/14 09:32:11;;;;;;;11.95;3.80;;;;;;;8.92;57.19;99812.94;114293;1193;64363;-78
2021/04/14 09:34:42;;;;;;;14.70;2.87;;;;;;;9.11;57.19;99804.81;114417;1192;64474;-78
2021/04/14 09:37:10;;;;;;;9.20;3.53;;;;;;;9.20;56.27;99814.11;114389;1193;64365;-77
2021/04/14 09:39:51;;;;;;;17.13;3.87;;;;;;;9.28;57.39;99811.88;114334;1193;64292;-78
2021/04/14 09:42:24;;;;;;;10.80;4.00;;;;;;;9.58;56.67;99800.47;114496;1193;64388;-79
2021/04/14 09:44:55;;;;;;;7.30;2.57;;;;;;;9.45;56.55;99809.15;114361;1193;64429;-83
2021/04/14 09:47:33;;;;;;;9.27;2.97;;;;;;;9.16;56.50;99801.88;114483;1193;64397;-79
2021/04/14 09:50:20;;;;;;;11.23;3.33;;;;;;;9.30;57.07;99798.48;114358;1193;64710;-79
2021/04/14 09:53:03;;;;;;;16.60;4.77;;;;;;;9.45;55.38;99787.81;114360;1193;64295;-80
2021/04/14 09:55:45;;;;;;;9.40;3.60;;;;;;;9.10;55.65;99791.58;114438;1193;64363;-78
2021/04/14 09:58:34;;;;;;;9.63;3.77;;;;;;;8.96;56.88;99794.11;114290;1193;64436;-85
2021/04/14 10:01:12;;;;;;;9.17;3.23;;;;;;;9.26;56.54;99787.13;114405;1193;64356;-79
2021/04/14 10:03:44;;;;;;;15.07;2.80;;;;;;;9.58;56.65;99787.13;114360;1193;64356;-83
2021/04/14 10:06:21;;;;;;;12.40;4.53;;;;;;;9.82;56.77;99784.89;114437;1192;64427;-80
2021/04/14 10:08:57;;;;;;;17.30;6.90;;;;;;;9.82;56.19;99780.41;114385;1193;64379;-79
2021/04/14 10:11:37;;;;;;;15.30;3.80;;;;;;;10.20;56.17;99786.19;114397;1193;64353;-78
2021/04/14 10:14:14;;;;;;;8.70;2.80;;;;;;;10.41;55.51;99772.54;114368;1196;64377;-78
2021/04/14 10:16:44;;;;;;;8.83;2.67;;;;;;;10.13;54.23;99790.17;114251;1193;64433;-79
2021/04/14 10:19:15;;;;;;;10.25;3.50;;;;;;;9.81;55.81;99773.36;114368;1193;64375;-79
2021/04/14 10:21:44;;;;;;;12.75;4.25;;;;;;;9.75;55.47;99776.38;114378;1193;64295;-81
2021/04/14 10:24:16;;;;;;;11.85;3.70;;;;;;;9.63;55.76;99779.73;114393;1193;64324;-77
2021/04/14 10:26:49;;;;;;;13.13;3.77;;;;;;;9.61;56.15;99773.64;114429;1193;64350;-79
2021/04/14 10:29:20;;;;;;;5.97;2.53;;;;;;;9.33;55.06;99788.50;114497;1193;64342;-79
2021/04/14 10:31:47;;;;;;;16.73;3.50;;;;;;;8.77;55.23;99784.44;114461;1193;64398;-82
2021/04/14 10:34:29;;;;;;;12.43;3.33;;;;;;;8.16;56.41;99782.27;114296;1193;64368;-79
2021/04/14 10:36:57;;;;;;;8.30;2.50;;;;;;;7.95;56.85;99778.91;114343;1193;64484;-78
2021/04/14 10:39:33;;;;;;;9.23;2.90;;;;;;;7.81;56.92;99782.22;114283;1193;64372;-82
2021/04/14 10:42:15;;;;;;;8.37;2.87;;;;;;;7.67;56.52;99782.03;114404;1193;64397;-78
2021/04/14 10:44:43;;;;;;;11.15;3.40;;;;;;;7.67;56.89;99784.70;114348;1193;64475;-82
2021/04/14 10:47:18;;;;;;;12.30;4.30;;;;;;;8.20;55.98;99754.55;114453;1193;64320;-80
2021/04/14 10:49:46;;;;;;;7.20;2.65;;;;;;;8.76;55.63;99769.41;114374;1193;64359;-84
2021/04/14 10:52:27;;;;;;;5.17;2.43;;;;;;;8.48;55.89;99759.36;114329;1193;64458;-80
2021/04/14 10:54:59;;;;;;;12.43;3.17;;;;;;;8.08;56.62;99763.19;114395;1193;64375;-82
2021/04/14 10:57:28;;;;;;;8.50;3.40;;;;;;;7.77;56.51;99775.34;114381;1193;64298;-81
2021/04/14 11:00:12;;;;;;;12.70;4.00;;;;;;;7.47;57.24;99782.14;114345;1193;64302;-79
2021/04/14 11:02:45;;;;;;;12.50;3.70;;;;;;;7.38;56.62;99771.94;114351;1193;64442;-79
2021/04/14 11:05:16;;;;;;;8.65;3.20;;;;;;;7.47;57.17;99771.52;114344;1193;64379;-80
2021/04/14 11:07:47;;;;;;;9.50;3.00;;;;;;;7.74;56.66;99764.84;114400;1193;64362;-79
2021/04/14 11:10:20;;;;;;;13.93;3.20;;;;;;;7.96;56.29;99759.34;114391;1193;64410;-79
2021/04/14 11:12:50;;;;;;;10.40;3.40;;;;;;;8.10;56.72;99748.00;114422;1192;64359;-81
2021/04/14 11:15:21;;;;;;;9.23;3.00;;;;;;;8.35;56.68;99756.48;114471;1193;64465;-78
2021/04/14 11:18:02;;;;;;;7.60;3.17;;;;;;;8.76;55.73;99749.91;114400;1193;64467;-78
2021/04/14 11:20:52;;;;;;;8.70;2.60;;;;;;;9.35;55.88;99748.42;114381;1193;64385;-79
2021/04/14 11:23:25;;;;;;;9.30;3.47;;;;;;;9.82;55.63;99740.39;114383;1193;64327;-78
2021/04/14 11:26:14;;;;;;;12.30;3.95;;;;;;;9.87;56.00;99746.33;114289;1193;64391;-79
2021/04/14 11:28:44;;;;;;;12.55;4.35;;;;;;;9.54;55.32;99743.77;114306;1193;64449;-81
2021/04/14 11:31:14;;;;;;;7.17;3.10;;;;;;;8.81;52.21;99761.17;114351;1192;64324;-78
2021/04/14 11:33:44;;;;;;;16.70;7.15;;;;;;;8.17;52.80;99756.52;114351;1193;64365;-77
2021/04/14 11:36:26;;;;;;;27.43;12.10;;;;;;;7.86;53.91;99750.95;114373;1193;64407;-83
2021/04/14 11:39:03;;;;;;;9.80;5.20;;;;;;;7.75;52.96;99755.93;114315;1193;64362;-78
2021/04/14 11:41:33;;;;;;;14.93;4.70;;;;;;;7.94;55.35;99755.88;114300;1193;64375;-81
2021/04/14 11:44:13;;;;;;;12.25;4.45;;;;;;;8.28;54.05;99763.02;114407;1193;64413;-81
2021/04/14 11:46:41;;;;;;;7.33;3.10;;;;;;;8.39;54.43;99757.16;114333;1193;64374;-82
2021/04/14 11:49:11;;;;;;;7.57;4.20;;;;;;;8.61;54.93;99752.45;114399;1192;64337;-80
2021/04/14 11:51:48;;;;;;;22.70;9.30;;;;;;;9.07;54.29;99746.44;114356;1192;64382;-76